Forside
METAR-TAF:

METAR-TAF

Lufthavne :

Flughafen Heringsdorf

Heringsdorf, Tyskland

Breddekreds: 53-53N, længdekreds: 014-09E, højde: 28 m

Aktuelle vejr

Denne rapport blev lavet for 35 minutter siden, kl. 08:50 UTC
Vind 6 kt fra sydsydvest, varierende mellem sydsydøst og sydvest
Temperatur 23°C
Fugtighed 78%
Tryk 1008 hPa
Sigt 10 km eller mere
ingen skyer under 1500m og ingen cumulonimbus

METAR: EDAH 160850Z 20006KT 160V230 CAVOK 23/19 Q1008

Tid: 11:25 (09:25 UTC)

Vejrudsigter

Denne rapport blev lavet for 1 time og 25 minutter siden, kl. 08:00 UTC
Foreløbig gælder fra 16 på 09 UTC til 16 på 18 UTC
Vind 6 kt fra syd
Sigt 10 km eller mere
ingen skyer under 1500m og ingen cumulonimbus
ændring
fra 16 på 13 UTC til 16 på 15 UTC
Vind 6 kt fra nordnordøst
Sandsynlighed 30% :
Midlertidig
fra 16 på 14 UTC til 16 på 18 UTC
Sigt: 4500 m
Brudte skyer i en højde af 2000 ft, Cumulonimbus.
tordenbyger, regn

TAF: EDAH 160800Z 1609/1618 17006KT CAVOK BECMG 1613/1615 03006KT PROB30 TEMPO 1614/1618 4500 TSRA BKN020CB

Vejrobservationer og prognoser fra mere end 4000 lufthavne (METAR og TAF).

De gule og røde prikker repræsenterer de meteorologiske stationer.

Flyt musen over at se navnet på stationen.

Så klik over at se vejr observationer og prognoser.

At skifte det kort: Klik på de grønne knapper med et sort kors for at zoome ind; på den grønne knap med en bindestreg for at zoome ud; eller på de grønne pile for tilstødende kort.


METAR-TAF: